• Join FlightAware (Why Join?)
  • Login
  • US Flag 
10:01AM EDT


 

Airport Tracker/Info


-or-


 

Live Flight TrackerFlight Track Log ✈ UAL4380 ✈ 26-Apr-2013 ✈ KMOB - KIAH

Flight Track Log - Related Links

Times and Time Zones

All times are in EDT time to prevent confusion due to time zone crossing. See the UAL4380 flight status page for this flight to view local times or setup timezone preferences in your user account.

Time Position Orientation Groundspeed Altitude Reporting Facility
EDT Latitude Longitude Course Direction KTS MPH feet Rate Location/Type
07:05AM 30.7581 -88.3153 264° West 204 235 4,700  Level Houston Center
07:06AM 30.7364 -88.3872 251° West 239 275 7,100 2,460 Climbing Houston Center
07:07AM 30.7097 -88.4672 249° West 261 300 9,700 2,280 Climbing Houston Center
07:08AM 30.7064 -88.5578 268° West 277 319 11,700 1,860 Climbing Houston Center
07:09AM 30.6923 -88.7929 265° West  Level FlightAware Approximate
07:09AM 30.6950 -88.6600 263° West 317 365 13,500  Level Houston Center
07:10AM 30.6847 -88.8836 264° West  Level FlightAware Approximate
07:10AM 30.6908 -88.7639 267° West 321 369 15,200  Level Houston Center
07:11AM 30.6839 -88.8700 266° West 326 375 17,100 1,680 Climbing Houston Center
07:12AM 30.6761 -88.9822 265° West 335 386 18,700 1,380 Climbing Houston Center
07:13AM 30.6703 -89.0922 266° West 342 394 20,000 600 Climbing Houston Center
07:14AM 30.6583 -89.2167 264° West 387 445 20,000 180 Level Houston Center
07:15AM 30.6525 -89.3500 267° West 411 473 20,400 720 Climbing Houston Center
07:16AM 30.6433 -89.4833 265° West 416 479 21,500 1,140 Climbing Houston Center
07:17AM 30.6339 -89.6167 265° West 418 481 22,700 1,140 Climbing Houston Center
07:18AM 30.6233 -89.7453 265° West 409 471 23,800 600 Climbing Houston Center
07:19AM 30.6075 -89.8767 262° West 417 480 24,000 60 Climbing Houston Center
07:20AM 30.6014 -90.0403 268° West 425 489 24,000  Level Houston Center
07:21AM 30.5958 -90.1800 267° West 433 498 24,000  Level Houston Center
07:22AM 30.5894 -90.3186 267° West 434 499 24,000 -60 Level Houston Center
07:23AM 30.5892 -90.4586 270° West 434 499 23,900  Descending Houston Center
07:24AM 30.5894 -90.5989 270° West 434 499 24,000  Climbing Houston Center
07:25AM 30.5819 -90.7386 266° West 434 499 24,000  Level Houston Center
07:26AM 30.5592 -90.8772 259° West 435 501 24,000 -60 Level Houston Center
07:27AM 30.5264 -91.0139 254° West 439 505 23,900  Descending Houston Center
07:28AM 30.4564 -91.1319 235° Southwest 454 522 24,000  Climbing Houston Center
07:29AM 30.3844 -91.2472 234° Southwest 445 512 24,000  Level Houston Center
07:30AM 30.3131 -91.3642 235° Southwest 448 516 24,000  Level Houston Center
07:31AM 30.2622 -91.4939 246° West 446 513 24,000  Level Houston Center
07:32AM 30.1964 -91.6486 244° Southwest 442 509 24,000  Level Houston Center
07:33AM 30.1464 -91.7728 245° Southwest 440 506 24,000  Level Houston Center
07:34AM 30.0936 -91.9006 245° Southwest 441 507 24,000  Level Houston Center
07:35AM 30.0414 -92.0292 245° Southwest 442 509 24,000  Level Houston Center
07:36AM 29.9989 -92.1606 250° West 440 506 24,000  Level Houston Center
07:37AM 29.9581 -92.2939 251° West 440 506 24,000  Level Houston Center
07:38AM 29.9172 -92.4269 251° West 440 506 24,000  Level Houston Center
07:39AM 29.8775 -92.5594 251° West 439 505 24,000  Level Houston Center
07:40AM 29.8367 -92.6928 251° West 440 506 24,000  Level Houston Center
07:41AM 29.7972 -92.8267 251° West 441 507 24,000  Level Houston Center
07:42AM 29.7581 -92.9597 251° West 439 505 24,000  Level Houston Center
07:43AM 29.7186 -93.0939 251° West 442 509 24,000  Level Houston Center
07:44AM 29.6786 -93.2292 251° West 444 511 24,000  Level Houston Center
07:45AM 29.6322 -93.3911 252° West 442 509 24,000 -300 Level Houston Center
07:46AM 29.5928 -93.5247 251° West 442 509 23,400 -840 Descending Houston Center
07:47AM 29.5547 -93.6572 252° West 437 503 22,300 -1,380 Descending Houston Center
07:48AM 29.5178 -93.7914 252° West 440 506 20,600 -1,740 Descending Houston Center
07:49AM 29.5031 -93.9231 263° West 419 482 18,800 -1,800 Descending Houston Center
07:50AM 29.5047 -94.0511 271° West 399 459 17,000 -2,040 Descending Houston Center
07:51AM 29.5003 -94.1742 268° West 397 457 15,000 -2,040 Descending Houston Center
07:52AM 29.5144 -94.2947 278° West 381 438 13,100 -1,020 Descending Houston Center
07:53AM 29.5339 -94.4028 282° West 323 372 13,000 -480 Descending Houston Center
07:54AM 29.5903 -94.5031 303° West 333 383 12,100 -900 Descending Houston Center
07:55AM 29.6303 -94.5925 297° West 338 389 11,200 -1,020 Descending Houston Center
07:56AM 29.6703 -94.6811 297° West 294 338 10,200 -960 Descending Houston Center
07:57AM 29.7058 -94.7656 296° West 302 348 9,300 -1,020 Descending Houston Center
07:58AM 29.7411 -94.8478 296° West 272 313 8,200 -1,080 Descending Houston Center
07:59AM 29.7761 -94.9303 296° West 274 315 7,200 -1,020 Descending Houston Center
08:00AM 29.8058 -94.9986 297° West 274 315 6,300 -900 Descending Houston Center
08:00AM 29.8117 -95.0081 305° West 275 316 6,200 -300 Descending Houston Center
08:01AM 29.8408 -95.0811 295° West 266 306 6,000 -240 Descending Houston Center
08:01AM 29.8500 -95.0994 300° West 267 307 6,000  Level Houston Center
08:02AM 29.8731 -95.1567 295° West 261 300 6,000  Level Houston Center
08:02AM 29.8831 -95.1742 303° West 264 304 6,000  Level Houston Center
08:03AM 29.8950 -95.2358 283° West 264 304 6,000  Level Houston Center
08:03AM 29.8967 -95.2550 276° West 263 303 6,000  Level Houston Center
08:04AM 29.9008 -95.3197 274° West 260 299 6,000  Level Houston Center
08:04AM 29.9017 -95.3372 273° West 260 299 6,000  Level Houston Center
08:05AM 29.9044 -95.4058 273° West 270 311 6,000  Level Houston Center
08:05AM 29.9064 -95.4214 278° West 263 303 6,000  Level Houston Center
08:06AM 29.9103 -95.4944 274° West 268 308 6,000  Level Houston Center
08:06AM 29.9122 -95.5072 280° West 268 308 6,000  Level Houston Center
08:07AM 29.9161 -95.5806 274° West 270 311 6,000  Level Houston Center
08:08AM 29.9181 -95.5925 281° West 268 308 6,000  Level Houston Center
08:08AM 29.9228 -95.6567 275° West 222 255 6,000  Level Houston Center
08:09AM 29.9244 -95.6681 280° West 248 285 6,000 -420 Level Houston Center
08:09AM 29.9397 -95.7272 287° West 243 280 5,600 -720 Descending Houston Center
08:10AM 29.9603 -95.7322 348° North 243 280 5,300 -600 Descending Houston Center
08:10AM 29.9914 -95.6944 46° Northeast 235 270 5,000 -300 Descending Houston Center
08:11AM 29.9942 -95.6747 81° East 232 267 5,000 -480 Level Houston Center
08:11AM 29.9917 -95.6294 94° East 230 265 4,600 -720 Descending Houston Center
08:12AM 29.9925 -95.5997 88° East 233 268 4,300 -1,020 Descending Houston Center
08:12AM 29.9922 -95.5642 91° East 188 216 3,600 -1,080 Descending Houston Center
08:13AM 29.9933 -95.5394 87° East 203 234 3,200 -1,020 Descending Houston Center
08:13AM 29.9931 -95.5039 91° East 182 209 2,600 -1,020 Descending Houston Center
08:14AM 29.9933 -95.4819 89° East 190 219 2,200 -840 Descending Houston Center
08:14AM 29.9931 -95.4556 91° East 131 151 1,800 -720 Descending Houston Center
08:15AM 29.9933 -95.4381 89° East 162 186 1,500 -720 Descending Houston Center
08:15AM 29.9931 -95.4122 91° East 130 150 1,100 -720 Descending Houston Center
08:16AM 29.9944 -95.3983 83° East 138 159 800 -720 Descending Houston Center
08:16AM 29.9933 -95.3686 92° East 129 148 300 -240 Descending Houston Center
08:17AM 29.9933 -95.3511 90° East 133 153 600 780 Climbing Houston Center